sensor_id;sensor_type;location;lat;lon;timestamp;pressure;altitude;pressure_sealevel;temperature;humidity
6528;BME280;3297;42.664;23.256;2022-09-01T00:01:53;50506.09;;;-139.84;77.06
6528;BME280;3297;42.664;23.256;2022-09-01T00:04:24;50490.53;;;-139.84;76.84
6528;BME280;3297;42.664;23.256;2022-09-01T00:06:53;50486.66;;;-139.84;76.89
6528;BME280;3297;42.664;23.256;2022-09-01T00:09:21;50509.97;;;-139.84;76.61
6528;BME280;3297;42.664;23.256;2022-09-01T00:11:50;50519.69;;;-139.84;76.70
6528;BME280;3297;42.664;23.256;2022-09-01T00:14:19;50509.97;;;-139.84;76.62
6528;BME280;3297;42.664;23.256;2022-09-01T00:16:46;50521.63;;;-139.84;77.37
6528;BME280;3297;42.664;23.256;2022-09-01T00:19:12;50486.66;;;-139.84;77.06
6528;BME280;3297;42.664;23.256;2022-09-01T00:21:41;50527.47;;;-139.84;76.84
6528;BME280;3297;42.664;23.256;2022-09-01T00:24:07;50502.19;;;-139.84;76.87
6528;BME280;3297;42.664;23.256;2022-09-01T00:26:33;50548.84;;;-139.84;76.84
6528;BME280;3297;42.664;23.256;2022-09-01T00:28:59;50490.53;;;-139.84;76.68
6528;BME280;3297;42.664;23.256;2022-09-01T00:31:26;50484.72;;;-139.84;76.76
6528;BME280;3297;42.664;23.256;2022-09-01T00:33:51;50531.34;;;-139.84;76.08
6528;BME280;3297;42.664;23.256;2022-09-01T00:36:18;50513.88;;;-139.84;75.93
6528;BME280;3297;42.664;23.256;2022-09-01T00:38:45;50544.97;;;-139.84;75.87
6528;BME280;3297;42.664;23.256;2022-09-01T00:41:12;50525.53;;;-139.84;77.04
6528;BME280;3297;42.664;23.256;2022-09-01T00:43:46;50502.19;;;-139.84;77.50
6528;BME280;3297;42.664;23.256;2022-09-01T00:46:27;50533.31;;;-139.84;77.61
6528;BME280;3297;42.664;23.256;2022-09-01T00:48:57;50440.00;;;-139.84;77.51
6528;BME280;3297;42.664;23.256;2022-09-01T00:51:26;50490.53;;;-139.84;77.50
6528;BME280;3297;42.664;23.256;2022-09-01T00:53:52;50521.63;;;-139.84;77.55
6528;BME280;3297;42.664;23.256;2022-09-01T00:56:21;50490.53;;;-139.84;77.47
6528;BME280;3297;42.664;23.256;2022-09-01T00:58:48;50511.91;;;-139.84;77.87
6528;BME280;3297;42.664;23.256;2022-09-01T01:01:14;50482.78;;;-139.84;78.75
6528;BME280;3297;42.664;23.256;2022-09-01T01:03:40;50521.63;;;-139.84;78.60
6528;BME280;3297;42.664;23.256;2022-09-01T01:06:09;50537.19;;;-139.84;78.20
6528;BME280;3297;42.664;23.256;2022-09-01T01:08:39;50486.66;;;-139.84;78.19
6528;BME280;3297;42.664;23.256;2022-09-01T01:11:13;50506.09;;;-139.84;78.19
6528;BME280;3297;42.664;23.256;2022-09-01T01:13:59;50498.31;;;-139.84;78.05
6528;BME280;3297;42.664;23.256;2022-09-01T01:16:30;50509.97;;;-139.84;77.79
6528;BME280;3297;42.664;23.256;2022-09-01T01:18:56;50508.03;;;-139.84;77.00
6528;BME280;3297;42.664;23.256;2022-09-01T01:21:29;50490.53;;;-139.84;78.76
6528;BME280;3297;42.664;23.256;2022-09-01T01:24:28;50498.31;;;-139.84;80.00
6528;BME280;3297;42.664;23.256;2022-09-01T01:26:56;50560.50;;;-139.84;80.36
6528;BME280;3297;42.664;23.256;2022-09-01T01:29:32;50513.88;;;-139.84;80.00
6528;BME280;3297;42.664;23.256;2022-09-01T01:31:59;50511.91;;;-139.84;80.36
6528;BME280;3297;42.664;23.256;2022-09-01T01:34:26;50517.75;;;-139.84;80.04
6528;BME280;3297;42.664;23.256;2022-09-01T01:36:52;50556.63;;;-139.84;80.12
6528;BME280;3297;42.664;23.256;2022-09-01T01:39:21;50539.13;;;-139.84;80.02
6528;BME280;3297;42.664;23.256;2022-09-01T01:41:51;50498.31;;;-139.84;80.38
6528;BME280;3297;42.664;23.256;2022-09-01T01:44:21;50525.53;;;-139.84;80.29
6528;BME280;3297;42.664;23.256;2022-09-01T01:46:53;50527.47;;;-139.84;80.39
6528;BME280;3297;42.664;23.256;2022-09-01T01:49:21;50509.97;;;-139.84;81.01
6528;BME280;3297;42.664;23.256;2022-09-01T01:51:49;50509.97;;;-139.84;80.95
6528;BME280;3297;42.664;23.256;2022-09-01T01:54:21;50537.19;;;-139.84;81.22
6528;BME280;3297;42.664;23.256;2022-09-01T01:56:47;50498.31;;;-139.84;81.64
6528;BME280;3297;42.664;23.256;2022-09-01T01:59:13;50527.47;;;-139.84;81.36
6528;BME280;3297;42.664;23.256;2022-09-01T02:01:42;50529.41;;;-139.84;81.04
6528;BME280;3297;42.664;23.256;2022-09-01T02:04:09;50502.19;;;-139.84;81.32
6528;BME280;3297;42.664;23.256;2022-09-01T02:06:36;50506.09;;;-139.84;81.23
6528;BME280;3297;42.664;23.256;2022-09-01T02:09:06;50519.69;;;-139.84;80.96
6528;BME280;3297;42.664;23.256;2022-09-01T02:11:33;50486.66;;;-139.84;80.76
6528;BME280;3297;42.664;23.256;2022-09-01T02:14:03;50490.53;;;-139.84;80.86
6528;BME280;3297;42.664;23.256;2022-09-01T02:16:30;50502.19;;;-139.84;81.12
6528;BME280;3297;42.664;23.256;2022-09-01T02:18:58;50496.38;;;-139.84;81.01
6528;BME280;3297;42.664;23.256;2022-09-01T02:21:25;50513.88;;;-139.84;81.08
6528;BME280;3297;42.664;23.256;2022-09-01T02:24:00;50521.63;;;-139.84;80.63
6528;BME280;3297;42.664;23.256;2022-09-01T02:26:39;50513.88;;;-139.84;80.58
6528;BME280;3297;42.664;23.256;2022-09-01T02:29:10;50509.97;;;-139.84;80.50
6528;BME280;3297;42.664;23.256;2022-09-01T02:31:42;50504.16;;;-139.84;80.57
6528;BME280;3297;42.664;23.256;2022-09-01T02:34:09;50513.88;;;-139.84;80.55
6528;BME280;3297;42.664;23.256;2022-09-01T02:36:45;50490.53;;;-139.84;80.52
6528;BME280;3297;42.664;23.256;2022-09-01T02:39:18;50513.88;;;-139.84;80.48
6528;BME280;3297;42.664;23.256;2022-09-01T02:41:44;50504.16;;;-139.84;80.46
6528;BME280;3297;42.664;23.256;2022-09-01T02:44:10;50544.97;;;-139.84;80.30
6528;BME280;3297;42.664;23.256;2022-09-01T02:46:38;50506.09;;;-139.84;79.96
6528;BME280;3297;42.664;23.256;2022-09-01T02:49:11;50475.00;;;-139.84;80.00
6528;BME280;3297;42.664;23.256;2022-09-01T02:51:44;50490.53;;;-139.84;79.75
6528;BME280;3297;42.664;23.256;2022-09-01T02:54:11;50537.19;;;-139.84;79.76
6528;BME280;3297;42.664;23.256;2022-09-01T02:56:42;50490.53;;;-139.84;79.95
6528;BME280;3297;42.664;23.256;2022-09-01T02:59:09;50509.97;;;-139.84;80.26
6528;BME280;3297;42.664;23.256;2022-09-01T03:01:38;50572.19;;;-139.84;80.54
6528;BME280;3297;42.664;23.256;2022-09-01T03:04:04;50523.59;;;-139.84;80.79
6528;BME280;3297;42.664;23.256;2022-09-01T03:06:35;50525.53;;;-139.84;80.83
6528;BME280;3297;42.664;23.256;2022-09-01T03:09:05;50502.19;;;-139.84;80.84
6528;BME280;3297;42.664;23.256;2022-09-01T03:11:33;50478.88;;;-139.84;81.10
6528;BME280;3297;42.664;23.256;2022-09-01T03:13:59;50506.09;;;-139.84;81.05
6528;BME280;3297;42.664;23.256;2022-09-01T03:16:25;50529.41;;;-139.84;81.12
6528;BME280;3297;42.664;23.256;2022-09-01T03:18:51;50548.84;;;-139.84;81.15
6528;BME280;3297;42.664;23.256;2022-09-01T03:21:18;50482.78;;;-139.84;80.90
6528;BME280;3297;42.664;23.256;2022-09-01T03:23:45;50541.06;;;-139.84;81.26
6528;BME280;3297;42.664;23.256;2022-09-01T03:26:12;50509.97;;;-139.84;81.27
6528;BME280;3297;42.664;23.256;2022-09-01T03:28:39;50478.88;;;-139.84;81.12
6528;BME280;3297;42.664;23.256;2022-09-01T03:31:05;50537.19;;;-139.84;81.09
6528;BME280;3297;42.664;23.256;2022-09-01T03:33:32;50531.34;;;-139.84;81.31
6528;BME280;3297;42.664;23.256;2022-09-01T03:35:59;50556.63;;;-139.84;81.34
6528;BME280;3297;42.664;23.256;2022-09-01T03:38:25;50537.19;;;-139.84;81.08
6528;BME280;3297;42.664;23.256;2022-09-01T03:40:53;50529.41;;;-139.84;81.14
6528;BME280;3297;42.664;23.256;2022-09-01T03:43:24;50525.53;;;-139.84;81.23
6528;BME280;3297;42.664;23.256;2022-09-01T03:45:53;50521.63;;;-139.84;81.51
6528;BME280;3297;42.664;23.256;2022-09-01T03:48:21;50517.75;;;-139.84;81.59
6528;BME280;3297;42.664;23.256;2022-09-01T03:50:47;50517.75;;;-139.84;81.47
6528;BME280;3297;42.664;23.256;2022-09-01T03:53:18;50531.34;;;-139.84;81.28
6528;BME280;3297;42.664;23.256;2022-09-01T03:55:46;50508.03;;;-139.84;81.21
6528;BME280;3297;42.664;23.256;2022-09-01T03:58:15;50521.63;;;-139.84;81.36
6528;BME280;3297;42.664;23.256;2022-09-01T04:00:48;50504.16;;;-139.84;81.18
6528;BME280;3297;42.664;23.256;2022-09-01T04:03:16;50506.09;;;-139.84;81.10
6528;BME280;3297;42.664;23.256;2022-09-01T04:05:48;50521.63;;;-139.84;81.08
6528;BME280;3297;42.664;23.256;2022-09-01T04:08:16;50517.75;;;-139.84;81.09
6528;BME280;3297;42.664;23.256;2022-09-01T04:10:45;50509.97;;;-139.84;80.59
6528;BME280;3297;42.664;23.256;2022-09-01T04:13:15;50533.31;;;-139.84;80.33
6528;BME280;3297;42.664;23.256;2022-09-01T04:15:41;50500.25;;;-139.84;80.23
6528;BME280;3297;42.664;23.256;2022-09-01T04:18:08;50521.63;;;-139.84;80.06
6528;BME280;3297;42.664;23.256;2022-09-01T04:20:39;50508.03;;;-139.84;79.84
6528;BME280;3297;42.664;23.256;2022-09-01T04:23:29;50560.50;;;-139.84;80.20
6528;BME280;3297;42.664;23.256;2022-09-01T04:28:32;50498.31;;;-139.84;80.96
6528;BME280;3297;42.664;23.256;2022-09-01T04:31:03;50560.50;;;-139.84;86.71
6528;BME280;3297;42.664;23.256;2022-09-01T04:33:37;50614.94;;;-139.84;78.90
6528;BME280;3297;42.664;23.256;2022-09-01T04:36:24;50585.78;;;-139.84;69.77
6528;BME280;3297;42.664;23.256;2022-09-01T04:38:55;50607.16;;;-139.84;67.91
6528;BME280;3297;42.664;23.256;2022-09-01T04:41:23;50601.34;;;-139.84;68.31
6528;BME280;3297;42.664;23.256;2022-09-01T04:43:51;50554.69;;;-139.84;69.82
6528;BME280;3297;42.664;23.256;2022-09-01T04:46:21;50523.59;;;-139.84;71.74
6528;BME280;3297;42.664;23.256;2022-09-01T04:48:51;50552.75;;;-139.84;72.85
6528;BME280;3297;42.664;23.256;2022-09-01T04:51:16;50544.97;;;-139.84;73.81
6528;BME280;3297;42.664;23.256;2022-09-01T04:53:45;50548.84;;;-139.84;75.03
6528;BME280;3297;42.664;23.256;2022-09-01T04:56:15;50537.19;;;-139.84;76.28
6528;BME280;3297;42.664;23.256;2022-09-01T04:58:44;50539.13;;;-139.84;76.94
6528;BME280;3297;42.664;23.256;2022-09-01T05:01:20;50552.75;;;-139.84;77.99
6528;BME280;3297;42.664;23.256;2022-09-01T05:03:48;50564.41;;;-139.84;78.05
6528;BME280;3297;42.664;23.256;2022-09-01T05:06:34;50568.28;;;-139.84;78.24
6528;BME280;3297;42.664;23.256;2022-09-01T05:09:04;50541.06;;;-139.84;78.10
6528;BME280;3297;42.664;23.256;2022-09-01T05:11:29;50537.19;;;-139.84;78.19
6528;BME280;3297;42.664;23.256;2022-09-01T05:13:57;50554.69;;;-139.84;78.05
6528;BME280;3297;42.664;23.256;2022-09-01T05:16:23;50576.06;;;-139.84;77.77
6528;BME280;3297;42.664;23.256;2022-09-01T05:18:52;50552.75;;;-139.84;77.12
6528;BME280;3297;42.664;23.256;2022-09-01T05:21:22;50568.28;;;-139.84;76.84
6528;BME280;3297;42.664;23.256;2022-09-01T05:23:56;50583.84;;;-139.84;76.79
6528;BME280;3297;42.664;23.256;2022-09-01T05:26:25;50543.03;;;-139.84;76.79
6528;BME280;3297;42.664;23.256;2022-09-01T05:28:54;50560.50;;;-139.84;76.61
6528;BME280;3297;42.664;23.256;2022-09-01T05:31:22;50570.22;;;-139.84;76.39
6528;BME280;3297;42.664;23.256;2022-09-01T05:33:49;50576.06;;;-139.84;76.33
6528;BME280;3297;42.664;23.256;2022-09-01T05:36:18;50554.69;;;-139.84;76.21
6528;BME280;3297;42.664;23.256;2022-09-01T05:38:44;50589.66;;;-139.84;76.68
6528;BME280;3297;42.664;23.256;2022-09-01T05:41:13;50556.63;;;-139.84;77.53
6528;BME280;3297;42.664;23.256;2022-09-01T05:43:41;50556.63;;;-139.84;77.04
6528;BME280;3297;42.664;23.256;2022-09-01T05:46:18;50572.19;;;-139.84;77.14
6528;BME280;3297;42.664;23.256;2022-09-01T05:48:46;50574.13;;;-139.84;76.86
6528;BME280;3297;42.664;23.256;2022-09-01T05:51:16;50568.28;;;-139.84;76.68
6528;BME280;3297;42.664;23.256;2022-09-01T05:53:48;50601.34;;;-139.84;75.80
6528;BME280;3297;42.664;23.256;2022-09-01T05:56:17;50630.50;;;-139.84;75.93
6528;BME280;3297;42.664;23.256;2022-09-01T05:58:45;50597.44;;;-139.84;74.72
6528;BME280;3297;42.664;23.256;2022-09-01T06:01:16;50595.50;;;-139.84;73.73
6528;BME280;3297;42.664;23.256;2022-09-01T06:03:50;50603.28;;;-139.84;72.19
6528;BME280;3297;42.664;23.256;2022-09-01T06:06:24;50630.50;;;-139.84;70.96
6528;BME280;3297;42.664;23.256;2022-09-01T06:08:51;50622.72;;;-139.84;70.25
6528;BME280;3297;42.664;23.256;2022-09-01T06:11:19;50593.56;;;-139.84;68.72
6528;BME280;3297;42.664;23.256;2022-09-01T06:13:45;50614.94;;;-139.84;66.25
6528;BME280;3297;42.664;23.256;2022-09-01T06:16:13;50622.72;;;-139.84;64.70
6528;BME280;3297;42.664;23.256;2022-09-01T06:18:39;50630.50;;;-139.84;63.46
6528;BME280;3297;42.664;23.256;2022-09-01T06:21:09;50657.69;;;-139.84;63.22
6528;BME280;3297;42.664;23.256;2022-09-01T06:23:40;50616.88;;;-139.84;62.10
6528;BME280;3297;42.664;23.256;2022-09-01T06:26:15;50630.50;;;-139.84;60.24
6528;BME280;3297;42.664;23.256;2022-09-01T06:28:42;50630.50;;;-139.84;59.85
6528;BME280;3297;42.664;23.256;2022-09-01T06:31:08;50673.25;;;-139.84;58.40
6528;BME280;3297;42.664;23.256;2022-09-01T06:33:34;50669.38;;;-139.84;57.00
6528;BME280;3297;42.664;23.256;2022-09-01T06:36:01;50646.03;;;-139.84;56.03
6528;BME280;3297;42.664;23.256;2022-09-01T06:38:28;50647.97;;;-139.84;56.37
6528;BME280;3297;42.664;23.256;2022-09-01T06:41:04;50665.47;;;-139.84;55.58
6528;BME280;3297;42.664;23.256;2022-09-01T06:43:38;50657.69;;;-139.84;53.62
6528;BME280;3297;42.664;23.256;2022-09-01T06:46:07;50653.81;;;-139.84;53.81
6528;BME280;3297;42.664;23.256;2022-09-01T06:48:35;50673.25;;;-139.84;53.26
6528;BME280;3297;42.664;23.256;2022-09-01T06:51:02;50642.16;;;-139.84;52.16
6528;BME280;3297;42.664;23.256;2022-09-01T06:53:29;50624.66;;;-139.84;51.24
6528;BME280;3297;42.664;23.256;2022-09-01T06:55:56;50626.59;;;-139.84;50.80
6528;BME280;3297;42.664;23.256;2022-09-01T06:58:22;50694.63;;;-139.84;50.06
6528;BME280;3297;42.664;23.256;2022-09-01T07:00:47;50636.31;;;-139.84;49.41
6528;BME280;3297;42.664;23.256;2022-09-01T07:03:14;50638.25;;;-139.84;50.16
6528;BME280;3297;42.664;23.256;2022-09-01T07:11:36;50618.81;;;-139.84;49.10
6528;BME280;3297;42.664;23.256;2022-09-01T07:14:04;50677.13;;;-139.84;48.13
6528;BME280;3297;42.664;23.256;2022-09-01T07:16:32;50682.97;;;-139.84;47.02
6528;BME280;3297;42.664;23.256;2022-09-01T07:19:04;50675.19;;;-139.84;47.31
6528;BME280;3297;42.664;23.256;2022-09-01T07:21:31;50665.47;;;-139.84;47.35
6528;BME280;3297;42.664;23.256;2022-09-01T07:23:57;50657.69;;;-139.84;46.22
6528;BME280;3297;42.664;23.256;2022-09-01T07:26:26;50673.25;;;-139.84;46.77
6528;BME280;3297;42.664;23.256;2022-09-01T07:28:53;50698.53;;;-139.84;46.05
6528;BME280;3297;42.664;23.256;2022-09-01T07:31:22;50684.91;;;-139.84;44.99
6528;BME280;3297;42.664;23.256;2022-09-01T07:33:48;50642.16;;;-139.84;45.42
6528;BME280;3297;42.664;23.256;2022-09-01T07:36:18;50684.91;;;-139.84;44.90
6528;BME280;3297;42.664;23.256;2022-09-01T07:38:44;50638.25;;;-139.84;44.22
6528;BME280;3297;42.664;23.256;2022-09-01T07:41:16;50636.31;;;-139.84;43.23
6528;BME280;3297;42.664;23.256;2022-09-01T07:43:41;50669.38;;;-139.84;43.40
6528;BME280;3297;42.664;23.256;2022-09-01T07:46:09;50657.69;;;-139.84;44.36
6528;BME280;3297;42.664;23.256;2022-09-01T07:48:35;50677.13;;;-139.84;44.08
6528;BME280;3297;42.664;23.256;2022-09-01T07:51:01;50663.53;;;-139.84;43.27
6528;BME280;3297;42.664;23.256;2022-09-01T07:53:31;50661.59;;;-139.84;42.52
6528;BME280;3297;42.664;23.256;2022-09-01T07:56:03;50646.03;;;-139.84;42.39
6528;BME280;3297;42.664;23.256;2022-09-01T07:58:32;50665.47;;;-139.84;42.99
6528;BME280;3297;42.664;23.256;2022-09-01T08:00:58;50657.69;;;-139.84;43.40
6528;BME280;3297;42.664;23.256;2022-09-01T08:03:28;50642.16;;;-139.84;42.87
6528;BME280;3297;42.664;23.256;2022-09-01T08:05:53;50642.16;;;-139.84;42.35
6528;BME280;3297;42.664;23.256;2022-09-01T08:08:23;50677.13;;;-139.84;41.39
6528;BME280;3297;42.664;23.256;2022-09-01T08:10:48;50653.81;;;-139.84;41.46
6528;BME280;3297;42.664;23.256;2022-09-01T08:13:15;50651.88;;;-139.84;41.58
6528;BME280;3297;42.664;23.256;2022-09-01T08:15:42;50665.47;;;-139.84;41.91
6528;BME280;3297;42.664;23.256;2022-09-01T08:18:08;50649.94;;;-139.84;41.79
6528;BME280;3297;42.664;23.256;2022-09-01T08:20:37;50677.13;;;-139.84;41.32
6528;BME280;3297;42.664;23.256;2022-09-01T08:23:05;50646.03;;;-139.84;42.14
6528;BME280;3297;42.664;23.256;2022-09-01T08:25:33;50696.56;;;-139.84;42.95
6528;BME280;3297;42.664;23.256;2022-09-01T08:28:01;50638.25;;;-139.84;42.08
6528;BME280;3297;42.664;23.256;2022-09-01T08:30:27;50667.41;;;-139.84;42.96
6528;BME280;3297;42.664;23.256;2022-09-01T08:32:52;50677.13;;;-139.84;42.30
6528;BME280;3297;42.664;23.256;2022-09-01T08:35:19;50642.16;;;-139.84;41.51
6528;BME280;3297;42.664;23.256;2022-09-01T08:37:45;50665.47;;;-139.84;40.92
6528;BME280;3297;42.664;23.256;2022-09-01T08:40:13;50690.75;;;-139.84;41.50
6528;BME280;3297;42.664;23.256;2022-09-01T08:42:49;50677.13;;;-139.84;41.34
6528;BME280;3297;42.664;23.256;2022-09-01T08:48:01;50626.59;;;-139.84;41.12
6528;BME280;3297;42.664;23.256;2022-09-01T08:50:31;50657.69;;;-139.84;40.40
6528;BME280;3297;42.664;23.256;2022-09-01T08:53:04;50714.06;;;-139.84;39.61
6528;BME280;3297;42.664;23.256;2022-09-01T08:55:40;50642.16;;;-139.84;39.01
6528;BME280;3297;42.664;23.256;2022-09-01T08:58:09;50682.97;;;-139.84;38.03
6528;BME280;3297;42.664;23.256;2022-09-01T09:00:54;50620.78;;;-139.84;37.75
6528;BME280;3297;42.664;23.256;2022-09-01T09:03:48;50657.69;;;-139.84;37.27
6528;BME280;3297;42.664;23.256;2022-09-01T09:06:33;50638.25;;;-139.84;36.84
6528;BME280;3297;42.664;23.256;2022-09-01T09:09:05;50634.38;;;-139.84;36.69
6528;BME280;3297;42.664;23.256;2022-09-01T09:14:13;50638.25;;;-139.84;37.46
6528;BME280;3297;42.664;23.256;2022-09-01T09:16:46;50665.47;;;-139.84;37.14
6528;BME280;3297;42.664;23.256;2022-09-01T09:21:57;50642.16;;;-139.84;36.29
6528;BME280;3297;42.664;23.256;2022-09-01T09:24:36;50642.16;;;-139.84;35.56
6528;BME280;3297;42.664;23.256;2022-09-01T09:27:26;50647.97;;;-139.84;36.37
6528;BME280;3297;42.664;23.256;2022-09-01T09:29:55;50640.22;;;-139.84;35.86
6528;BME280;3297;42.664;23.256;2022-09-01T09:32:23;50614.94;;;-139.84;36.27
6528;BME280;3297;42.664;23.256;2022-09-01T09:34:50;50607.16;;;-139.84;35.80
6528;BME280;3297;42.664;23.256;2022-09-01T09:37:23;50647.97;;;-139.84;35.25
6528;BME280;3297;42.664;23.256;2022-09-01T09:40:09;50632.44;;;-139.84;35.16
6528;BME280;3297;42.664;23.256;2022-09-01T09:42:37;50624.66;;;-139.84;34.33
6528;BME280;3297;42.664;23.256;2022-09-01T09:45:25;50669.38;;;-139.84;34.28
6528;BME280;3297;42.664;23.256;2022-09-01T09:47:56;50655.75;;;-139.84;35.24
6528;BME280;3297;42.664;23.256;2022-09-01T09:50:52;50611.06;;;-139.84;34.48
6528;BME280;3297;42.664;23.256;2022-09-01T09:53:26;50611.06;;;-139.84;33.53
6528;BME280;3297;42.664;23.256;2022-09-01T09:56:04;50614.94;;;-139.84;34.33
6528;BME280;3297;42.664;23.256;2022-09-01T09:58:38;50632.44;;;-139.84;34.86
6528;BME280;3297;42.664;23.256;2022-09-01T10:03:36;50616.88;;;-139.84;35.38
6528;BME280;3297;42.664;23.256;2022-09-01T10:06:03;50595.50;;;-139.84;34.82
6528;BME280;3297;42.664;23.256;2022-09-01T10:11:04;50644.09;;;-139.84;34.09
6528;BME280;3297;42.664;23.256;2022-09-01T10:13:31;50613.00;;;-139.84;33.54
6528;BME280;3297;42.664;23.256;2022-09-01T10:16:05;50622.72;;;-139.84;34.54
6528;BME280;3297;42.664;23.256;2022-09-01T10:18:41;50579.94;;;-139.84;34.59
6528;BME280;3297;42.664;23.256;2022-09-01T10:21:14;50622.72;;;-139.84;33.98
6528;BME280;3297;42.664;23.256;2022-09-01T10:23:40;50626.59;;;-139.84;33.18
6528;BME280;3297;42.664;23.256;2022-09-01T10:26:18;50640.22;;;-139.84;32.49
6528;BME280;3297;42.664;23.256;2022-09-01T10:29:13;50609.09;;;-139.84;33.26
6528;BME280;3297;42.664;23.256;2022-09-01T10:31:40;50638.25;;;-139.84;33.96
6528;BME280;3297;42.664;23.256;2022-09-01T10:34:07;50603.28;;;-139.84;33.57
6528;BME280;3297;42.664;23.256;2022-09-01T10:36:36;50591.63;;;-139.84;32.99
6528;BME280;3297;42.664;23.256;2022-09-01T10:39:03;50640.22;;;-139.84;32.46
6528;BME280;3297;42.664;23.256;2022-09-01T10:41:58;50587.72;;;-139.84;32.88
6528;BME280;3297;42.664;23.256;2022-09-01T10:44:55;50653.81;;;-139.84;34.20
6528;BME280;3297;42.664;23.256;2022-09-01T10:47:26;50630.50;;;-139.84;33.75
6528;BME280;3297;42.664;23.256;2022-09-01T10:50:01;50607.16;;;-139.84;34.09
6528;BME280;3297;42.664;23.256;2022-09-01T11:13:56;50560.50;;;-139.84;36.24
6528;BME280;3297;42.664;23.256;2022-09-01T11:16:34;50611.06;;;-139.84;36.29
6528;BME280;3297;42.664;23.256;2022-09-01T11:21:46;50626.59;;;-139.84;35.06
6528;BME280;3297;42.664;23.256;2022-09-01T11:27:03;50601.34;;;-139.84;35.40
6528;BME280;3297;42.664;23.256;2022-09-01T11:29:52;50605.22;;;-139.84;35.24
6528;BME280;3297;42.664;23.256;2022-09-01T11:32:20;50595.50;;;-139.84;34.69
6528;BME280;3297;42.664;23.256;2022-09-01T11:34:48;50591.63;;;-139.84;35.01
6528;BME280;3297;42.664;23.256;2022-09-01T11:37:17;50601.34;;;-139.84;35.40
6528;BME280;3297;42.664;23.256;2022-09-01T11:39:53;50599.38;;;-139.84;35.26
6528;BME280;3297;42.664;23.256;2022-09-01T11:42:41;50609.09;;;-139.84;34.75
6528;BME280;3297;42.664;23.256;2022-09-01T11:47:39;50603.28;;;-139.84;34.73
6528;BME280;3297;42.664;23.256;2022-09-01T11:52:41;50554.69;;;-139.84;33.98
6528;BME280;3297;42.664;23.256;2022-09-01T11:55:08;50560.50;;;-139.84;34.28
6528;BME280;3297;42.664;23.256;2022-09-01T11:57:38;50562.47;;;-139.84;34.23
6528;BME280;3297;42.664;23.256;2022-09-01T12:00:10;50595.50;;;-139.84;33.63
6528;BME280;3297;42.664;23.256;2022-09-01T12:02:48;50583.84;;;-139.84;33.71
6528;BME280;3297;42.664;23.256;2022-09-01T12:05:33;50576.06;;;-139.84;34.63
6528;BME280;3297;42.664;23.256;2022-09-01T12:08:03;50552.75;;;-139.84;33.59
6528;BME280;3297;42.664;23.256;2022-09-01T12:10:35;50613.00;;;-139.84;33.91
6528;BME280;3297;42.664;23.256;2022-09-01T12:13:16;50556.63;;;-139.84;33.93
6528;BME280;3297;42.664;23.256;2022-09-01T12:15:43;50583.84;;;-139.84;34.48
6528;BME280;3297;42.664;23.256;2022-09-01T12:18:26;50568.28;;;-139.84;34.55
6528;BME280;3297;42.664;23.256;2022-09-01T12:20:54;50607.16;;;-139.84;35.53
6528;BME280;3297;42.664;23.256;2022-09-01T12:23:33;50646.03;;;-139.84;35.21
6528;BME280;3297;42.664;23.256;2022-09-01T12:26:24;50613.00;;;-139.84;35.40
6528;BME280;3297;42.664;23.256;2022-09-01T12:28:50;50568.28;;;-139.84;35.62
6528;BME280;3297;42.664;23.256;2022-09-01T12:31:21;50595.50;;;-139.84;35.58
6528;BME280;3297;42.664;23.256;2022-09-01T12:33:48;50574.13;;;-139.84;36.45
6528;BME280;3297;42.664;23.256;2022-09-01T12:36:29;50568.28;;;-139.84;36.68
6528;BME280;3297;42.664;23.256;2022-09-01T12:39:22;50579.94;;;-139.84;37.55
6528;BME280;3297;42.664;23.256;2022-09-01T12:42:04;50552.75;;;-139.84;37.89
6528;BME280;3297;42.664;23.256;2022-09-01T12:44:43;50568.28;;;-139.84;38.75
6528;BME280;3297;42.664;23.256;2022-09-01T12:47:42;50529.41;;;-139.84;38.95
6528;BME280;3297;42.664;23.256;2022-09-01T12:52:52;50548.84;;;-139.84;39.72
6528;BME280;3297;42.664;23.256;2022-09-01T12:55:22;50548.84;;;-139.84;39.28
6528;BME280;3297;42.664;23.256;2022-09-01T12:57:54;50601.34;;;-139.84;38.88
6528;BME280;3297;42.664;23.256;2022-09-01T13:03:14;50560.50;;;-139.84;38.91
6528;BME280;3297;42.664;23.256;2022-09-01T13:05:44;50601.34;;;-139.84;39.00
6528;BME280;3297;42.664;23.256;2022-09-01T13:08:31;50568.28;;;-139.84;39.50
6528;BME280;3297;42.664;23.256;2022-09-01T13:11:13;50579.94;;;-139.84;39.61
6528;BME280;3297;42.664;23.256;2022-09-01T13:13:39;50583.84;;;-139.84;39.43
6528;BME280;3297;42.664;23.256;2022-09-01T13:16:05;50572.19;;;-139.84;39.28
6528;BME280;3297;42.664;23.256;2022-09-01T13:18:39;50564.41;;;-139.84;40.26
6528;BME280;3297;42.664;23.256;2022-09-01T13:21:05;50566.34;;;-139.84;39.53
6528;BME280;3297;42.664;23.256;2022-09-01T13:23:31;50541.06;;;-139.84;40.30
6528;BME280;3297;42.664;23.256;2022-09-01T13:25:57;50583.84;;;-139.84;40.93
6528;BME280;3297;42.664;23.256;2022-09-01T13:28:24;50579.94;;;-139.84;41.15
6528;BME280;3297;42.664;23.256;2022-09-01T13:31:01;50564.41;;;-139.84;42.00
6528;BME280;3297;42.664;23.256;2022-09-01T13:33:30;50552.75;;;-139.84;42.51
6528;BME280;3297;42.664;23.256;2022-09-01T13:35:56;50568.28;;;-139.84;42.27
6528;BME280;3297;42.664;23.256;2022-09-01T13:38:22;50527.47;;;-139.84;42.87
6528;BME280;3297;42.664;23.256;2022-09-01T13:40:49;50568.28;;;-139.84;42.63
6528;BME280;3297;42.664;23.256;2022-09-01T13:43:20;50599.38;;;-139.84;42.51
6528;BME280;3297;42.664;23.256;2022-09-01T13:45:46;50552.75;;;-139.84;42.19
6528;BME280;3297;42.664;23.256;2022-09-01T13:48:12;50593.56;;;-139.84;43.57
6528;BME280;3297;42.664;23.256;2022-09-01T13:50:39;50579.94;;;-139.84;43.40
6528;BME280;3297;42.664;23.256;2022-09-01T13:53:05;50556.63;;;-139.84;42.95
6528;BME280;3297;42.664;23.256;2022-09-01T13:55:37;50568.28;;;-139.84;43.23
6528;BME280;3297;42.664;23.256;2022-09-01T13:58:04;50544.97;;;-139.84;43.45
6528;BME280;3297;42.664;23.256;2022-09-01T14:00:32;50568.28;;;-139.84;43.41
6528;BME280;3297;42.664;23.256;2022-09-01T14:03:02;50572.19;;;-139.84;43.98
6528;BME280;3297;42.664;23.256;2022-09-01T14:05:32;50583.84;;;-139.84;44.17
6528;BME280;3297;42.664;23.256;2022-09-01T14:07:59;50543.03;;;-139.84;43.58